Hulbert, OK (74441)

06:31 PM CDT del 29 Luglio 2016 (GMT -0500)
Shady Grove Oklahoma | | Change Station

Alt. 741 ft 35.96 °N, 95.08 °W | Updated 13 seconds ago

Clear
Sereno
87.8 °F
Sembra 94 °F
N
1.8
Vento Variabile Vento da ENE
Gusts 4.9 mph

Oggi
Massima -- | Minima -- °F
--% Possibilità di precip.
Ieri
Massima -- | Minima -- °F
Precip. -- in
Pressione 29.95 in
Visibilità 10.0 miglia
Nuvole Sereno
Indice di calore 94 °F
Punto di rugiada 72 °F
Umidità 59%
Piovosità 0.07 in
Spessore del manto nevoso Non disponibile.
6:26 AM 8:27 PM
Luna calante, 18% visible
METAR KTQH 292315Z AUTO 04006KT 10SM CLR 32/19 A2995 RMK AO2
Pressione 29.95 in
Visibilità 10.0 miglia
Nuvole Sereno
Indice di calore 94 °F
Punto di rugiada 72 °F
Umidità 59%
Piovosità 0.07 in
Spessore del manto nevoso Non disponibile.
6:26 AM 8:27 PM
Luna calante, 18% visible
METAR KTQH 292315Z AUTO 04006KT 10SM CLR 32/19 A2995 RMK AO2

10-Day Weather Forecast

Almanac

Astronomia

Jul. 29, 2016 Alba Tramonto
Ora attuale
Crepuscolo civile
Crepuscolo nautico
Crepuscolo astronomico
Luna
Estensione della luce visibile
Lunghezza del giorno
Tomorrow will be .
, % of the Moon is Illuminated

Gli estremi di oggi

State Highs State Lows

Community

WunderPhotos

Upload Photos

1,928,439 foto caricate!

WunderBlog® & News

Nearby

Qualità dell'aria

  Qualità dell'aria Indice AQ Inquinante
Not available.

Profondità neve

Stazione Profondità Altitudine

Attività sismica

Città  Distanza Mag. Data & Ora
Minimo Magnitudo Mostrato è 2.5.

Temperature delle acque costiere

Località Temperatura

Stations

Stazioni meteo nelle vicinanze

Ubicazione della stazione Temp. Raffreddamento del vento Punto di rugiada Umidità Vento Precip. Alt. Aggiornato Tipo
                   

Watches & Warnings

There are currently no watches in effect.